Time;durP1;ratioP1;P1;durP2;ratioP2;P2;SDS_P1;SDS_P2;PMS_P1;PMS_P2;Temp;Humidity;BMP_temperature;BMP_pressure;BME280_temperature;BME280_humidity;BME280_pressure;Samples;Min_cycle;Max_cycle;Signal;HPM_P1;HPM_P2
2022/04/09 00:05:22;;;;;;;3.53;2.70;;;4.60;99.90;;;;;;5064528;28;20917;-91
2022/04/09 00:08:12;;;;;;;7.10;2.13;;;4.60;99.90;;;;;;5063464;28;21602;-90
2022/04/09 00:11:05;;;;;;;6.40;2.03;;;4.60;99.90;;;;;;5069918;28;20450;-91
2022/04/09 00:13:54;;;;;;;5.70;1.57;;;4.50;99.90;;;;;;5064906;28;21023;-90
2022/04/09 00:16:47;;;;;;;3.70;1.60;;;4.50;99.90;;;;;;5067777;28;20457;-91
2022/04/09 00:22:30;;;;;;;6.27;2.10;;;4.50;99.90;;;;;;5059091;27;20559;-72
2022/04/09 00:25:23;;;;;;;2.73;1.73;;;4.50;99.90;;;;;;5099079;27;22572;-72
2022/04/09 00:28:12;;;;;;;3.83;1.63;;;4.40;99.90;;;;;;5115940;27;20547;-75
2022/04/09 00:31:00;;;;;;;5.47;2.10;;;4.40;99.90;;;;;;5108850;27;20482;-70
2022/04/09 00:33:48;;;;;;;6.37;1.80;;;4.30;99.90;;;;;;5113829;27;20504;-70
2022/04/09 00:36:36;;;;;;;5.23;1.60;;;4.30;99.90;;;;;;5111098;27;20573;-74
2022/04/09 00:39:26;;;;;;;5.23;1.50;;;4.30;99.90;;;;;;5117881;27;20459;-74
2022/04/09 00:42:14;;;;;;;3.17;1.50;;;4.30;99.90;;;;;;5117697;27;20534;-72
2022/04/09 00:45:02;;;;;;;2.93;1.47;;;4.30;99.90;;;;;;5120575;27;20476;-73
2022/04/09 00:47:50;;;;;;;3.17;1.50;;;4.30;99.90;;;;;;5113120;27;20574;-70
2022/04/09 00:50:39;;;;;;;3.50;1.60;;;4.20;99.90;;;;;;5114369;27;21117;-70
2022/04/09 00:53:32;;;;;;;3.83;2.07;;;4.20;99.90;;;;;;5109828;27;20536;-70
2022/04/09 00:56:23;;;;;;;4.10;1.80;;;4.20;99.90;;;;;;5111336;27;20560;-70
2022/04/09 00:59:12;;;;;;;3.17;1.60;;;4.20;99.90;;;;;;5112679;27;20934;-71
2022/04/09 01:02:00;;;;;;;6.83;1.67;;;4.20;99.90;;;;;;5114816;27;20489;-70
2022/04/09 01:04:50;;;;;;;2.77;1.80;;;4.10;99.90;;;;;;5114880;27;20542;-71
2022/04/09 01:07:38;;;;;;;3.67;1.70;;;4.00;99.90;;;;;;5114108;27;20452;-70
2022/04/09 01:10:26;;;;;;;2.33;1.60;;;4.00;99.90;;;;;;5113957;27;20568;-72
2022/04/09 01:13:16;;;;;;;3.90;2.20;;;4.00;99.90;;;;;;5116269;27;20459;-71
2022/04/09 01:16:05;;;;;;;6.27;2.30;;;4.00;99.90;;;;;;5106281;27;20468;-69
2022/04/09 01:18:54;;;;;;;4.60;1.80;;;4.00;99.90;;;;;;5110624;27;20455;-72
2022/04/09 01:21:42;;;;;;;6.50;2.00;;;4.00;99.90;;;;;;5116563;27;20470;-69
2022/04/09 01:24:32;;;;;;;4.77;2.20;;;4.00;99.90;;;;;;5106246;27;20439;-70
2022/04/09 01:27:20;;;;;;;5.00;2.03;;;4.00;99.90;;;;;;5109057;27;20447;-73
2022/04/09 01:30:09;;;;;;;5.93;2.40;;;4.00;99.90;;;;;;5111000;27;20469;-75
2022/04/09 01:33:01;;;;;;;4.90;2.40;;;4.00;99.90;;;;;;5100252;27;20460;-73
2022/04/09 01:35:50;;;;;;;6.53;2.20;;;4.00;99.90;;;;;;5092306;27;20475;-72
2022/04/09 01:38:39;;;;;;;2.00;1.70;;;4.00;99.90;;;;;;5096220;27;20437;-72
2022/04/09 01:41:28;;;;;;;3.23;2.17;;;3.90;99.90;;;;;;5099677;27;20444;-70
2022/04/09 01:44:17;;;;;;;5.30;4.30;;;4.00;99.90;;;;;;5096562;27;20543;-71
2022/04/09 01:47:05;;;;;;;5.10;2.03;;;3.90;99.90;;;;;;5100757;27;20570;-71
2022/04/09 01:49:53;;;;;;;5.90;2.00;;;3.90;99.90;;;;;;5093681;27;20535;-71
2022/04/09 01:52:41;;;;;;;2.70;1.63;;;3.90;99.90;;;;;;5089711;27;20468;-72
2022/04/09 01:55:30;;;;;;;3.00;2.20;;;3.90;99.90;;;;;;5096133;27;20484;-70
2022/04/09 01:58:20;;;;;;;3.90;1.80;;;3.80;99.90;;;;;;5108159;27;20453;-70
2022/04/09 02:01:08;;;;;;;4.77;2.20;;;3.80;99.90;;;;;;5108906;27;20452;-70
2022/04/09 02:03:57;;;;;;;2.77;1.83;;;3.80;99.90;;;;;;5108905;27;20452;-70
2022/04/09 02:06:45;;;;;;;4.20;2.20;;;3.80;99.90;;;;;;5094996;27;20461;-70
2022/04/09 02:09:33;;;;;;;3.17;1.87;;;3.80;99.90;;;;;;5113862;27;20596;-71
2022/04/09 02:12:21;;;;;;;3.80;2.17;;;3.70;99.90;;;;;;5102333;27;20557;-70
2022/04/09 02:15:14;;;;;;;3.77;1.63;;;3.70;99.90;;;;;;5097856;27;20610;-71
2022/04/09 02:18:02;;;;;;;4.60;1.90;;;3.70;99.90;;;;;;5106078;27;20549;-70
2022/04/09 02:20:52;;;;;;;3.97;1.90;;;3.70;99.90;;;;;;5101857;28;20521;-70
2022/04/09 02:23:41;;;;;;;5.43;1.70;;;3.70;99.90;;;;;;5108016;27;20476;-72
2022/04/09 02:26:29;;;;;;;2.80;1.90;;;3.70;99.90;;;;;;5105545;27;20476;-70
2022/04/09 02:29:17;;;;;;;1.80;1.70;;;3.60;99.90;;;;;;5096243;27;20457;-70
2022/04/09 02:32:07;;;;;;;3.63;2.27;;;3.60;99.90;;;;;;5100833;28;20572;-71
2022/04/09 02:34:56;;;;;;;4.70;2.10;;;3.60;99.90;;;;;;5102103;27;21702;-70
2022/04/09 02:37:44;;;;;;;3.83;2.17;;;3.60;99.90;;;;;;5101851;27;20521;-71
2022/04/09 02:40:33;;;;;;;2.53;1.80;;;3.60;99.90;;;;;;5104147;27;21039;-71
2022/04/09 02:43:21;;;;;;;5.10;2.10;;;3.60;99.90;;;;;;5102316;27;20447;-70
2022/04/09 02:46:09;;;;;;;5.77;1.70;;;3.60;99.90;;;;;;5072694;22;20505;-70
2022/04/09 02:49:00;;;;;;;1.90;1.67;;;3.50;99.90;;;;;;5039949;28;20456;-69
2022/04/09 02:51:48;;;;;;;3.63;1.73;;;3.50;99.90;;;;;;5038735;28;20536;-68
2022/04/09 02:54:37;;;;;;;4.40;1.90;;;3.50;99.90;;;;;;5040027;28;20447;-68
2022/04/09 02:57:25;;;;;;;1.90;1.60;;;3.50;99.90;;;;;;5036624;28;20464;-68
2022/04/09 03:00:14;;;;;;;3.50;1.70;;;3.50;99.90;;;;;;5026910;28;20468;-68
2022/04/09 03:03:02;;;;;;;4.73;2.00;;;3.50;99.90;;;;;;5032583;28;20500;-68
2022/04/09 03:05:51;;;;;;;4.90;1.80;;;3.50;99.90;;;;;;5031214;28;20482;-69
2022/04/09 03:08:40;;;;;;;3.30;2.27;;;3.50;99.90;;;;;;5039684;28;20462;-68
2022/04/09 03:11:28;;;;;;;2.80;1.67;;;3.50;99.90;;;;;;5038442;28;20492;-69
2022/04/09 03:14:16;;;;;;;4.10;2.03;;;3.40;99.90;;;;;;5039852;28;20443;-69
2022/04/09 03:17:04;;;;;;;5.43;2.23;;;3.40;99.90;;;;;;5033146;28;20556;-69
2022/04/09 03:19:52;;;;;;;5.60;2.10;;;3.40;99.90;;;;;;5030718;28;20455;-69
2022/04/09 03:22:46;;;;;;;2.50;1.93;;;3.40;99.90;;;;;;5028259;28;20549;-69
2022/04/09 03:25:34;;;;;;;2.40;2.20;;;3.40;99.90;;;;;;5035873;28;20490;-69
2022/04/09 03:28:22;;;;;;;1.90;1.70;;;3.40;99.90;;;;;;5030146;28;20487;-69
2022/04/09 03:31:10;;;;;;;3.77;2.50;;;3.40;99.90;;;;;;5035451;28;20489;-69
2022/04/09 03:33:59;;;;;;;4.30;2.07;;;3.40;99.90;;;;;;5028896;28;20471;-69
2022/04/09 03:36:47;;;;;;;3.40;2.30;;;3.40;99.90;;;;;;5035764;28;20970;-69
2022/04/09 03:39:37;;;;;;;4.13;2.30;;;3.40;99.90;;;;;;5033981;28;20530;-69
2022/04/09 03:42:25;;;;;;;4.03;2.30;;;3.40;99.90;;;;;;5031657;28;21023;-69
2022/04/09 03:45:14;;;;;;;2.70;2.00;;;3.40;99.90;;;;;;5027840;28;20504;-69
2022/04/09 03:48:02;;;;;;;4.87;2.40;;;3.40;99.90;;;;;;5034320;28;20587;-71
2022/04/09 03:50:51;;;;;;;2.30;2.10;;;3.40;99.90;;;;;;5033775;28;20474;-70
2022/04/09 03:53:40;;;;;;;3.03;2.20;;;3.40;99.90;;;;;;5033195;28;20483;-70
2022/04/09 03:56:29;;;;;;;3.77;2.20;;;3.40;99.90;;;;;;5028583;28;22495;-70
2022/04/09 03:59:17;;;;;;;7.87;2.43;;;3.40;99.90;;;;;;5036294;28;20559;-70
2022/04/09 04:02:05;;;;;;;6.00;2.60;;;3.40;99.90;;;;;;5035705;28;20463;-70
2022/04/09 04:04:54;;;;;;;4.90;2.10;;;3.40;99.90;;;;;;5041268;28;20474;-70
2022/04/09 04:07:43;;;;;;;3.77;2.53;;;3.40;99.90;;;;;;5037581;28;20446;-69
2022/04/09 04:10:32;;;;;;;4.87;2.60;;;3.50;99.90;;;;;;5039990;28;20538;-69
2022/04/09 04:13:22;;;;;;;5.77;2.50;;;3.50;99.90;;;;;;5041022;28;20605;-69
2022/04/09 04:16:10;;;;;;;5.60;2.30;;;3.50;99.90;;;;;;5029429;28;20471;-70
2022/04/09 04:18:59;;;;;;;5.53;2.27;;;3.50;99.90;;;;;;5031967;28;20455;-70
2022/04/09 04:21:47;;;;;;;4.60;2.70;;;3.50;99.90;;;;;;5038670;28;20516;-69
2022/04/09 04:24:37;;;;;;;8.10;3.40;;;3.50;99.90;;;;;;5034960;28;20451;-69
2022/04/09 04:27:25;;;;;;;3.53;2.20;;;3.50;99.90;;;;;;5031325;28;20537;-70
2022/04/09 04:30:15;;;;;;;8.73;2.97;;;3.50;99.90;;;;;;5032368;28;20442;-70
2022/04/09 04:33:04;;;;;;;4.03;2.50;;;3.50;99.90;;;;;;5040327;28;20558;-69
2022/04/09 04:35:52;;;;;;;9.87;3.20;;;3.50;99.90;;;;;;5028311;28;20499;-69
2022/04/09 04:38:40;;;;;;;5.30;2.40;;;3.50;99.90;;;;;;5042492;28;21246;-69
2022/04/09 04:41:29;;;;;;;8.83;3.20;;;3.40;99.90;;;;;;5036413;28;20483;-69
2022/04/09 04:44:17;;;;;;;6.03;3.03;;;3.50;99.90;;;;;;5034213;28;20545;-69
2022/04/09 04:47:07;;;;;;;4.77;3.03;;;3.50;99.90;;;;;;5031343;28;20656;-68
2022/04/09 04:49:55;;;;;;;6.07;3.60;;;3.50;99.90;;;;;;5045128;28;20466;-69
2022/04/09 04:52:44;;;;;;;6.90;3.13;;;3.50;99.90;;;;;;5042552;28;20522;-69
2022/04/09 04:55:32;;;;;;;7.63;2.77;;;3.50;99.90;;;;;;5034746;28;20534;-69
2022/04/09 04:58:20;;;;;;;8.10;3.33;;;3.50;99.90;;;;;;5033642;28;20597;-69
2022/04/09 05:01:09;;;;;;;7.90;3.57;;;3.50;99.90;;;;;;5026136;28;20579;-69
2022/04/09 05:03:58;;;;;;;8.70;3.63;;;3.50;99.90;;;;;;5029231;28;20469;-69
2022/04/09 05:06:48;;;;;;;5.47;2.80;;;3.50;99.90;;;;;;5032181;28;20482;-69
2022/04/09 05:09:36;;;;;;;4.40;2.80;;;3.50;99.90;;;;;;5037302;28;20593;-69
2022/04/09 05:12:24;;;;;;;7.00;3.07;;;3.50;99.90;;;;;;5034179;28;20487;-70
2022/04/09 05:15:15;;;;;;;5.20;3.20;;;3.50;99.90;;;;;;5037541;28;20641;-69
2022/04/09 05:18:03;;;;;;;5.37;3.10;;;3.60;99.90;;;;;;5039619;28;20455;-70
2022/04/09 05:20:52;;;;;;;8.70;3.40;;;3.60;99.90;;;;;;5039683;28;20658;-70
2022/04/09 05:23:41;;;;;;;8.43;3.93;;;3.70;99.90;;;;;;5039908;28;20454;-70
2022/04/09 05:26:29;;;;;;;5.77;3.10;;;3.70;99.90;;;;;;5039508;28;20467;-70
2022/04/09 05:29:17;;;;;;;7.80;3.03;;;3.70;99.90;;;;;;5038906;28;20462;-70
2022/04/09 05:32:06;;;;;;;4.70;3.50;;;3.70;99.90;;;;;;5050696;28;20573;-70
2022/04/09 05:34:54;;;;;;;10.83;3.43;;;3.80;99.90;;;;;;5033174;28;20482;-69
2022/04/09 05:37:48;;;;;;;8.57;3.77;;;3.80;99.90;;;;;;5040950;28;20534;-69
2022/04/09 05:40:37;;;;;;;5.33;3.20;;;3.80;99.90;;;;;;5043150;28;20456;-70
2022/04/09 05:43:25;;;;;;;8.23;4.07;;;3.70;99.90;;;;;;5038445;28;20466;-69
2022/04/09 05:46:13;;;;;;;6.37;3.27;;;3.80;99.90;;;;;;5041405;28;20621;-69
2022/04/09 05:49:02;;;;;;;8.73;3.50;;;3.80;99.90;;;;;;5041831;28;20514;-70
2022/04/09 05:51:50;;;;;;;6.27;2.90;;;3.90;99.90;;;;;;5041126;28;20522;-69
2022/04/09 05:54:40;;;;;;;4.33;3.43;;;3.90;99.90;;;;;;5032723;28;20493;-69
2022/04/09 05:57:29;;;;;;;5.80;3.13;;;3.90;99.90;;;;;;5035443;28;20533;-69
2022/04/09 06:00:18;;;;;;;5.97;4.50;;;3.90;99.90;;;;;;5029563;28;20602;-69
2022/04/09 06:03:07;;;;;;;6.43;3.03;;;4.00;99.90;;;;;;5037461;28;20462;-70
2022/04/09 06:05:55;;;;;;;7.30;3.70;;;4.00;99.90;;;;;;5036318;28;20609;-70
2022/04/09 06:08:43;;;;;;;8.67;3.67;;;4.10;99.90;;;;;;5043683;28;20538;-69
2022/04/09 06:11:33;;;;;;;4.50;3.17;;;4.10;99.90;;;;;;5030842;28;20602;-70
2022/04/09 06:14:21;;;;;;;6.17;5.10;;;4.10;99.90;;;;;;5037392;28;20977;-70
2022/04/09 06:17:09;;;;;;;6.60;3.23;;;4.10;99.90;;;;;;5040189;28;20482;-70
2022/04/09 06:19:57;;;;;;;6.70;3.40;;;4.10;99.90;;;;;;5037517;28;20474;-70
2022/04/09 06:22:45;;;;;;;8.83;3.47;;;4.20;99.90;;;;;;5038523;28;20455;-71
2022/04/09 06:25:34;;;;;;;5.57;2.63;;;4.10;99.90;;;;;;5033176;28;20505;-71
2022/04/09 06:28:24;;;;;;;4.33;3.10;;;4.10;99.90;;;;;;5035060;28;20463;-70
2022/04/09 06:31:12;;;;;;;5.13;2.80;;;4.10;99.90;;;;;;5038443;28;20451;-71
2022/04/09 06:34:00;;;;;;;5.13;2.70;;;4.20;99.90;;;;;;5031724;28;20482;-70
2022/04/09 06:36:49;;;;;;;6.07;3.23;;;4.20;99.90;;;;;;5040445;28;20474;-70
2022/04/09 06:39:37;;;;;;;3.97;2.77;;;4.20;99.90;;;;;;5042074;28;20938;-70
2022/04/09 06:42:25;;;;;;;5.43;2.30;;;4.20;99.90;;;;;;5046129;28;20517;-71
2022/04/09 06:45:15;;;;;;;5.40;2.43;;;4.20;99.90;;;;;;5035569;28;20483;-69
2022/04/09 06:48:03;;;;;;;4.80;2.90;;;4.30;99.90;;;;;;5041618;28;20899;-70
2022/04/09 06:50:51;;;;;;;4.00;2.77;;;4.30;99.90;;;;;;5035729;28;20458;-70
2022/04/09 06:53:40;;;;;;;6.83;3.50;;;4.40;99.90;;;;;;5042318;28;20657;-70
2022/04/09 06:56:28;;;;;;;7.83;2.80;;;4.60;99.90;;;;;;5033826;28;20536;-70
2022/04/09 06:59:16;;;;;;;4.30;2.50;;;4.70;99.90;;;;;;5041238;28;20446;-71
2022/04/09 07:02:07;;;;;;;8.07;3.20;;;4.70;99.90;;;;;;5027172;28;20478;-70
2022/04/09 07:04:55;;;;;;;7.87;3.30;;;4.70;99.90;;;;;;5041760;28;20970;-69
2022/04/09 07:07:48;;;;;;;10.73;3.00;;;4.70;99.90;;;;;;5037872;28;20458;-69
2022/04/09 07:10:37;;;;;;;7.30;2.50;;;4.80;99.90;;;;;;5048477;28;20446;-70
2022/04/09 07:13:25;;;;;;;3.03;2.57;;;4.80;99.90;;;;;;5037271;28;20929;-70
2022/04/09 07:16:13;;;;;;;4.17;2.50;;;4.90;99.90;;;;;;5041699;28;20470;-71
2022/04/09 07:19:06;;;;;;;5.20;2.77;;;4.90;99.90;;;;;;5034919;28;20519;-69
2022/04/09 07:21:54;;;;;;;6.30;3.40;;;4.90;99.90;;;;;;5029759;28;20446;-69
2022/04/09 07:24:43;;;;;;;5.07;3.00;;;4.90;99.90;;;;;;5029719;28;20511;-69
2022/04/09 07:27:38;;;;;;;7.20;3.33;;;5.00;99.90;;;;;;5037014;28;20554;-70
2022/04/09 07:30:26;;;;;;;3.90;3.00;;;5.00;99.90;;;;;;5026004;28;20988;-71
2022/04/09 07:33:15;;;;;;;6.40;2.87;;;5.00;99.90;;;;;;5027550;28;20461;-70
2022/04/09 07:36:04;;;;;;;4.70;3.10;;;4.90;99.90;;;;;;5035480;28;20470;-71
2022/04/09 07:38:53;;;;;;;4.00;1.90;;;4.80;99.90;;;;;;5032708;28;20447;-70
2022/04/09 07:41:41;;;;;;;6.23;2.40;;;4.60;99.90;;;;;;5031217;28;20511;-70
2022/04/09 07:44:30;;;;;;;3.90;1.97;;;4.60;99.90;;;;;;5024882;28;20818;-70
2022/04/09 07:47:18;;;;;;;3.50;2.10;;;4.60;99.90;;;;;;5026040;28;20528;-69
2022/04/09 07:50:10;;;;;;;2.80;2.40;;;4.70;99.90;;;;;;5040022;28;20454;-70
2022/04/09 07:53:00;;;;;;;4.50;2.40;;;4.80;99.90;;;;;;5034823;28;20774;-70
2022/04/09 07:55:48;;;;;;;3.40;2.40;;;4.80;99.90;;;;;;5039974;28;20482;-69
2022/04/09 07:58:36;;;;;;;4.93;2.60;;;4.90;99.90;;;;;;5039750;28;20637;-70
2022/04/09 08:01:25;;;;;;;2.63;2.43;;;5.00;99.90;;;;;;5025184;28;20466;-70
2022/04/09 08:04:13;;;;;;;4.33;2.43;;;5.10;99.90;;;;;;5027552;28;20775;-70
2022/04/09 08:07:01;;;;;;;2.50;2.30;;;5.20;99.90;;;;;;5036630;28;20462;-70
2022/04/09 08:09:55;;;;;;;3.90;2.60;;;5.30;99.90;;;;;;5027830;28;20483;-69
2022/04/09 08:12:46;;;;;;;3.20;2.80;;;5.40;99.90;;;;;;5037095;28;20454;-72
2022/04/09 08:15:34;;;;;;;7.43;3.00;;;5.50;99.90;;;;;;5028657;28;20994;-71
2022/04/09 08:18:22;;;;;;;7.73;3.50;;;5.60;99.90;;;;;;5039988;28;20457;-70
2022/04/09 08:21:26;;;;;;;6.27;2.73;;;5.60;99.90;;;;;;5039671;28;20458;-70
2022/04/09 08:24:14;;;;;;;5.53;2.80;;;5.60;99.90;;;;;;5034420;28;20498;-69
2022/04/09 08:27:04;;;;;;;4.20;2.83;;;5.70;99.90;;;;;;5026180;28;20473;-69
2022/04/09 08:29:53;;;;;;;5.10;3.13;;;5.90;99.90;;;;;;5024596;28;20462;-70
2022/04/09 08:32:41;;;;;;;5.60;2.57;;;5.90;99.90;;;;;;5036331;28;20606;-70
2022/04/09 08:35:29;;;;;;;3.60;2.30;;;5.90;99.90;;;;;;5034978;28;20702;-70
2022/04/09 08:38:17;;;;;;;6.20;3.00;;;5.90;99.90;;;;;;5038681;28;20524;-70
2022/04/09 08:41:06;;;;;;;3.00;2.50;;;5.90;99.90;;;;;;5035286;28;20541;-70
2022/04/09 08:43:55;;;;;;;2.93;2.03;;;5.90;99.90;;;;;;5042353;28;20973;-70
2022/04/09 08:46:44;;;;;;;5.87;1.50;;;6.00;99.90;;;;;;5059331;22;20623;-67
2022/04/09 08:49:37;;;;;;;3.10;1.30;;;5.90;99.90;;;;;;5056055;28;20484;-67
2022/04/09 08:52:26;;;;;;;4.50;1.70;;;5.90;99.90;;;;;;5047831;28;20465;-69
2022/04/09 08:55:14;;;;;;;3.13;1.50;;;6.00;99.90;;;;;;5053616;28;20481;-68
2022/04/09 08:58:02;;;;;;;2.77;1.57;;;6.10;99.90;;;;;;5032565;28;21144;-69
2022/04/09 09:00:52;;;;;;;3.27;1.53;;;6.20;99.90;;;;;;5036118;28;20455;-69
2022/04/09 09:03:40;;;;;;;3.37;1.90;;;6.20;99.90;;;;;;5025285;28;20471;-71
2022/04/09 09:06:30;;;;;;;3.60;1.90;;;6.30;99.90;;;;;;5041995;28;20462;-68
2022/04/09 09:09:30;;;;;;;2.80;1.40;;;6.40;99.90;;;;;;5035491;28;20978;-68
2022/04/09 09:12:29;;;;;;;3.83;2.07;;;6.50;99.90;;;;;;5045679;28;20588;-68
2022/04/09 09:15:17;;;;;;;3.57;1.83;;;6.60;99.90;;;;;;5052309;28;20481;-68
2022/04/09 09:18:10;;;;;;;4.63;2.17;;;6.70;99.90;;;;;;5048109;28;20548;-68
2022/04/09 09:21:00;;;;;;;3.60;1.70;;;6.80;99.90;;;;;;5051740;28;20530;-69
2022/04/09 09:23:48;;;;;;;5.40;1.80;;;6.90;99.90;;;;;;5050787;28;21124;-67
2022/04/09 09:26:38;;;;;;;4.90;2.20;;;7.00;99.90;;;;;;5055581;28;20472;-68
2022/04/09 09:29:29;;;;;;;3.77;1.87;;;6.90;99.90;;;;;;5056631;28;20457;-69
2022/04/09 09:32:25;;;;;;;4.07;1.80;;;6.80;99.90;;;;;;5063997;28;20446;-68
2022/04/09 09:35:16;;;;;;;5.47;1.90;;;6.70;99.90;;;;;;5060845;28;20512;-68
2022/04/09 09:38:18;;;;;;;2.90;1.30;;;6.70;99.90;;;;;;5066719;28;20575;-69
2022/04/09 09:41:22;;;;;;;2.50;1.60;;;6.70;99.90;;;;;;5067781;28;20524;-68
2022/04/09 09:44:11;;;;;;;2.10;1.23;;;6.90;99.90;;;;;;5057668;28;20446;-68
2022/04/09 09:47:06;;;;;;;2.20;1.10;;;7.00;99.90;;;;;;5066689;28;20916;-68
2022/04/09 09:49:56;;;;;;;1.10;1.00;;;7.10;99.90;;;;;;5043778;28;20438;-71
2022/04/09 09:52:46;;;;;;;4.20;1.40;;;7.20;99.90;;;;;;5043354;28;20469;-68
2022/04/09 09:55:42;;;;;;;4.47;1.77;;;7.30;99.90;;;;;;5048266;28;20484;-69
2022/04/09 09:58:32;;;;;;;1.80;1.00;;;7.40;99.90;;;;;;5052700;28;20460;-68
2022/04/09 10:01:38;;;;;;;3.40;1.00;;;7.40;99.90;;;;;;5049740;28;20916;-66
2022/04/09 10:04:27;;;;;;;1.97;1.20;;;7.50;99.90;;;;;;5061407;28;20462;-70
2022/04/09 10:07:16;;;;;;;3.13;1.20;;;7.40;99.90;;;;;;5059847;28;20607;-70
2022/04/09 10:10:09;;;;;;;1.60;1.30;;;7.40;99.90;;;;;;5062860;28;20461;-68
2022/04/09 10:13:00;;;;;;;5.50;1.00;;;7.30;99.90;;;;;;5047271;28;20549;-69
2022/04/09 10:15:52;;;;;;;2.30;1.10;;;7.40;99.90;;;;;;5046059;28;20482;-67
2022/04/09 10:18:41;;;;;;;2.63;1.17;;;7.40;99.90;;;;;;5064765;28;20450;-72
2022/04/09 10:21:31;;;;;;;3.77;1.30;;;7.60;99.90;;;;;;5056583;28;20931;-71
2022/04/09 10:24:23;;;;;;;4.20;1.10;;;7.60;99.90;;;;;;5046619;28;20459;-71
2022/04/09 10:27:38;;;;;;;3.53;1.03;;;7.60;99.90;;;;;;5053749;28;20511;-71
2022/04/09 10:30:28;;;;;;;3.53;1.33;;;7.70;99.90;;;;;;5062197;28;20488;-73
2022/04/09 10:33:23;;;;;;;3.10;1.20;;;7.80;99.90;;;;;;5054413;28;20965;-74
2022/04/09 10:36:13;;;;;;;4.73;1.20;;;7.80;99.90;;;;;;5048149;28;20599;-72
2022/04/09 10:39:20;;;;;;;3.50;1.30;;;7.80;99.90;;;;;;5055504;28;21025;-73
2022/04/09 10:42:10;;;;;;;2.90;1.17;;;7.70;99.90;;;;;;5059371;28;20891;-72
2022/04/09 10:45:00;;;;;;;4.00;1.30;;;7.40;99.90;;;;;;5055301;28;20480;-71
2022/04/09 10:48:10;;;;;;;2.70;1.13;;;7.20;99.90;;;;;;5053110;28;20467;-71
2022/04/09 10:51:01;;;;;;;3.50;1.30;;;7.00;99.90;;;;;;5049023;28;20548;-73
2022/04/09 10:53:51;;;;;;;2.27;1.07;;;6.70;99.90;;;;;;5055884;28;20453;-71
2022/04/09 10:56:44;;;;;;;0.70;0.70;;;6.50;99.90;;;;;;5045768;28;20487;-72
2022/04/09 10:59:33;;;;;;;2.93;0.80;;;6.20;99.90;;;;;;5048859;28;20560;-74
2022/04/09 11:02:24;;;;;;;2.10;0.87;;;6.10;99.90;;;;;;5043036;28;20597;-73
2022/04/09 11:05:22;;;;;;;3.10;1.00;;;6.20;99.90;;;;;;5053736;28;20658;-70
2022/04/09 11:08:14;;;;;;;2.93;1.40;;;6.40;99.90;;;;;;5044183;28;20488;-70
2022/04/09 11:11:03;;;;;;;1.57;1.17;;;6.60;99.90;;;;;;5050120;28;20489;-73
2022/04/09 11:13:51;;;;;;;3.10;1.50;;;6.80;99.90;;;;;;5062120;28;20450;-72
2022/04/09 11:16:39;;;;;;;2.97;1.20;;;7.00;99.90;;;;;;5045426;28;22234;-76
2022/04/09 11:19:30;;;;;;;4.80;1.30;;;7.20;99.90;;;;;;5054649;28;20466;-75
2022/04/09 11:22:18;;;;;;;3.20;1.23;;;7.40;99.90;;;;;;5049553;28;20476;-76
2022/04/09 11:25:09;;;;;;;2.53;1.10;;;7.70;99.90;;;;;;5043269;28;20512;-74
2022/04/09 11:28:06;;;;;;;2.33;1.20;;;7.80;99.90;;;;;;5039513;28;20445;-73
2022/04/09 11:30:55;;;;;;;2.63;1.30;;;7.80;99.90;;;;;;5047486;28;20516;-71
2022/04/09 11:33:57;;;;;;;9.10;1.57;;;7.80;99.90;;;;;;5042799;28;20535;-72
2022/04/09 11:36:46;;;;;;;2.43;1.10;;;8.00;99.90;;;;;;5052215;28;20472;-71
2022/04/09 11:39:38;;;;;;;3.30;1.40;;;8.40;99.90;;;;;;5054599;28;20460;-71
2022/04/09 11:42:27;;;;;;;4.00;1.63;;;8.50;99.90;;;;;;5055415;28;20827;-71
2022/04/09 11:45:19;;;;;;;5.30;1.83;;;8.60;99.90;;;;;;5050648;28;20553;-71
2022/04/09 11:48:13;;;;;;;2.73;1.40;;;8.60;99.90;;;;;;5056894;28;20453;-73
2022/04/09 11:51:02;;;;;;;5.70;1.93;;;8.60;99.90;;;;;;5058995;28;20789;-72
2022/04/09 11:53:51;;;;;;;3.13;1.40;;;8.80;99.90;;;;;;5052172;28;20438;-73
2022/04/09 11:56:40;;;;;;;5.10;1.50;;;8.90;99.90;;;;;;5059570;28;20588;-72
2022/04/09 11:59:30;;;;;;;7.10;1.60;;;8.70;99.90;;;;;;5058014;28;20477;-72
2022/04/09 12:02:23;;;;;;;2.93;1.33;;;8.70;99.90;;;;;;5056230;28;20556;-74
2022/04/09 12:05:12;;;;;;;5.17;1.90;;;8.60;99.90;;;;;;5041611;28;20799;-72
2022/04/09 12:08:01;;;;;;;7.10;1.90;;;8.60;99.90;;;;;;5047721;28;20535;-74
2022/04/09 12:10:55;;;;;;;5.93;2.17;;;8.40;99.90;;;;;;5054927;28;20446;-73
2022/04/09 12:13:45;;;;;;;5.00;1.77;;;8.30;99.90;;;;;;5048527;28;20575;-71
2022/04/09 12:16:38;;;;;;;6.30;2.10;;;8.20;99.90;;;;;;5051408;28;20624;-72
2022/04/09 12:19:31;;;;;;;5.50;2.20;;;8.10;99.90;;;;;;5044436;28;20458;-72
2022/04/09 12:22:23;;;;;;;8.43;2.40;;;8.10;99.90;;;;;;5051908;28;20944;-69
2022/04/09 12:25:11;;;;;;;8.40;2.50;;;8.30;99.90;;;;;;5053494;28;20447;-73
2022/04/09 12:28:00;;;;;;;7.20;2.00;;;8.50;99.90;;;;;;5057521;28;20458;-74
2022/04/09 12:30:51;;;;;;;8.80;2.47;;;8.60;99.90;;;;;;5050680;28;20565;-73
2022/04/09 12:33:58;;;;;;;7.10;2.00;;;8.60;99.90;;;;;;5056172;28;20451;-73
2022/04/09 12:36:59;;;;;;;7.50;2.30;;;8.70;99.90;;;;;;5051820;28;21273;-71
2022/04/09 12:39:48;;;;;;;8.03;2.17;;;8.90;99.90;;;;;;5055740;28;20437;-72
2022/04/09 12:42:36;;;;;;;6.53;2.40;;;9.00;99.90;;;;;;5052291;28;20524;-71
2022/04/09 12:45:27;;;;;;;7.27;2.10;;;9.20;99.90;;;;;;5053325;28;20461;-71
2022/04/09 12:48:16;;;;;;;8.07;2.80;;;9.40;99.90;;;;;;5052318;28;20451;-72
2022/04/09 12:51:04;;;;;;;7.40;2.40;;;9.40;99.90;;;;;;5052676;28;20486;-71
2022/04/09 12:53:52;;;;;;;7.67;2.63;;;9.30;99.90;;;;;;5053042;28;20458;-73
2022/04/09 12:56:40;;;;;;;8.73;2.83;;;9.40;99.90;;;;;;5044169;28;20555;-74
2022/04/09 12:59:28;;;;;;;6.40;2.30;;;9.60;99.90;;;;;;5049896;28;20526;-72
2022/04/09 13:02:18;;;;;;;6.47;2.30;;;9.60;99.90;;;;;;5049604;28;20454;-72
2022/04/09 13:05:07;;;;;;;6.07;2.77;;;9.60;99.90;;;;;;5045279;28;20529;-73
2022/04/09 13:07:56;;;;;;;10.03;2.60;;;9.60;99.90;;;;;;5046490;28;20462;-72
2022/04/09 13:10:44;;;;;;;10.13;2.80;;;9.60;99.90;;;;;;5049470;28;20635;-74
2022/04/09 13:13:33;;;;;;;5.13;1.93;;;9.50;99.90;;;;;;5046850;28;20473;-72
2022/04/09 13:16:21;;;;;;;6.90;2.40;;;9.40;99.90;;;;;;5049981;28;20469;-73
2022/04/09 13:19:11;;;;;;;9.80;2.90;;;9.40;99.90;;;;;;5044595;28;20501;-73
2022/04/09 13:21:59;;;;;;;9.00;2.93;;;9.40;99.90;;;;;;5047404;28;20572;-72
2022/04/09 13:24:47;;;;;;;9.80;3.67;;;9.30;99.90;;;;;;5052374;28;20450;-74
2022/04/09 13:27:35;;;;;;;10.47;3.20;;;9.20;99.90;;;;;;5043410;28;20795;-75
2022/04/09 13:30:25;;;;;;;6.03;2.60;;;9.50;99.90;;;;;;5048754;28;20450;-72
2022/04/09 13:33:14;;;;;;;8.17;2.97;;;9.50;99.90;;;;;;5044762;28;20526;-71
2022/04/09 13:36:04;;;;;;;10.50;3.10;;;9.50;99.90;;;;;;5044795;28;21225;-71
2022/04/09 13:38:52;;;;;;;9.17;3.80;;;9.70;99.90;;;;;;5049677;28;20546;-74
2022/04/09 13:42:00;;;;;;;10.33;2.97;;;10.00;99.90;;;;;;5050570;28;20454;-73
2022/04/09 13:44:49;;;;;;;8.43;2.77;;;10.40;99.90;;;;;;5041155;28;20450;-72
2022/04/09 13:47:37;;;;;;;3.83;2.30;;;12.20;99.90;;;;;;5044698;28;21855;-72
2022/04/09 13:50:25;;;;;;;8.37;2.87;;;11.90;99.90;;;;;;5047941;28;20449;-73
2022/04/09 13:53:15;;;;;;;9.73;3.30;;;10.80;99.90;;;;;;5050158;28;20573;-74
2022/04/09 13:56:04;;;;;;;10.13;2.73;;;10.40;99.90;;;;;;5053380;28;20534;-75
2022/04/09 13:58:55;;;;;;;5.37;2.50;;;9.90;99.90;;;;;;5046756;28;20473;-71
2022/04/09 14:01:43;;;;;;;7.67;2.80;;;11.70;99.90;;;;;;5045565;28;21166;-74
2022/04/09 14:04:37;;;;;;;5.90;2.33;;;14.10;99.90;;;;;;5048320;28;20450;-72
2022/04/09 14:07:25;;;;;;;10.13;3.07;;;15.00;99.90;;;;;;5052518;28;20475;-72
2022/04/09 14:10:17;;;;;;;4.97;2.57;;;15.10;99.90;;;;;;5048081;28;20454;-72
2022/04/09 14:13:06;;;;;;;5.43;2.30;;;14.90;99.90;;;;;;5052259;28;20447;-71
2022/04/09 14:15:54;;;;;;;7.53;2.60;;;15.20;99.90;;;;;;5046467;28;21077;-72
2022/04/09 14:18:43;;;;;;;6.33;2.50;;;15.10;99.90;;;;;;5054029;28;20620;-71
2022/04/09 14:21:32;;;;;;;5.63;2.80;;;14.80;99.90;;;;;;5050199;28;20922;-72
2022/04/09 14:24:20;;;;;;;5.50;2.23;;;14.70;99.90;;;;;;5054761;28;20445;-73
2022/04/09 14:27:10;;;;;;;4.70;2.57;;;13.70;99.90;;;;;;5055345;28;20574;-73
2022/04/09 14:29:58;;;;;;;4.43;1.93;;;13.00;99.90;;;;;;5053780;28;20446;-71
2022/04/09 14:32:46;;;;;;;6.90;2.33;;;13.30;99.90;;;;;;5048998;28;20493;-72
2022/04/09 14:35:34;;;;;;;4.87;1.93;;;14.30;99.90;;;;;;5053016;28;21068;-72
2022/04/09 14:38:22;;;;;;;5.30;1.97;;;15.00;99.90;;;;;;5049335;28;20482;-75
2022/04/09 14:41:12;;;;;;;5.50;2.33;;;14.40;99.90;;;;;;5047606;28;20454;-72
2022/04/09 14:44:01;;;;;;;5.53;2.17;;;13.70;99.90;;;;;;5042935;28;20959;-75
2022/04/09 14:46:50;;;;;;;7.30;2.10;;;13.80;99.90;;;;;;5067833;22;20496;-69
2022/04/09 14:49:38;;;;;;;4.77;2.23;;;13.40;99.90;;;;;;5047268;28;20853;-69
2022/04/09 14:52:26;;;;;;;8.20;2.57;;;14.00;99.90;;;;;;5042575;28;20834;-70
2022/04/09 14:55:14;;;;;;;5.87;2.27;;;14.20;99.90;;;;;;5050549;28;20453;-69
2022/04/09 14:58:03;;;;;;;4.17;2.00;;;13.40;99.90;;;;;;5029410;28;20577;-70
2022/04/09 15:00:52;;;;;;;5.63;2.40;;;12.50;99.90;;;;;;5032475;28;20471;-77